createdAt,value
2023-08-11T00:01:09.395Z,5.20
2023-08-11T00:06:12.889Z,5.53
2023-08-11T00:11:17.641Z,5.43
2023-08-11T00:16:20.787Z,3.80
2023-08-11T00:21:24.740Z,6.30
2023-08-11T00:26:31.477Z,4.40
2023-08-11T00:31:34.629Z,5.13
2023-08-11T00:36:38.089Z,4.07
2023-08-11T00:41:42.905Z,5.07
2023-08-11T00:46:47.103Z,3.57
2023-08-11T00:51:50.478Z,6.07
2023-08-11T00:56:55.899Z,3.20
2023-08-11T01:01:59.190Z,5.87
2023-08-11T01:07:10.015Z,4.87
2023-08-11T01:12:23.364Z,6.00
2023-08-11T01:17:28.451Z,3.67
2023-08-11T01:22:36.410Z,5.57
2023-08-11T01:27:47.066Z,3.17
2023-08-11T01:32:51.411Z,4.17
2023-08-11T01:37:54.612Z,5.10
2023-08-11T01:43:02.987Z,5.83
2023-08-11T01:48:07.806Z,3.83
2023-08-11T01:53:12.061Z,5.20
2023-08-11T01:58:17.033Z,4.50
2023-08-11T02:03:20.693Z,7.60
2023-08-11T02:08:23.942Z,3.00
2023-08-11T02:13:30.258Z,6.43
2023-08-11T02:18:33.358Z,3.93
2023-08-11T02:23:36.456Z,3.37
2023-08-11T02:28:41.313Z,4.33
2023-08-11T02:33:45.145Z,4.43
2023-08-11T02:38:48.213Z,5.27
2023-08-11T02:43:53.081Z,5.40
2023-08-11T02:48:56.434Z,6.00
2023-08-11T02:53:59.540Z,3.90
2023-08-11T02:59:04.221Z,4.70
2023-08-11T03:04:07.619Z,7.13
2023-08-11T03:09:11.981Z,4.87
2023-08-11T03:14:16.415Z,3.60
2023-08-11T03:19:19.579Z,4.40
2023-08-11T03:24:23.032Z,4.00
2023-08-11T03:29:27.673Z,3.50
2023-08-11T03:34:30.992Z,4.20
2023-08-11T03:39:34.530Z,4.33
2023-08-11T03:44:39.104Z,5.17
2023-08-11T03:49:42.183Z,5.17
2023-08-11T03:54:46.157Z,6.30
2023-08-11T03:59:51.144Z,6.17
2023-08-11T04:04:54.234Z,3.93
2023-08-11T04:09:57.806Z,4.07
2023-08-11T04:15:02.372Z,6.03
2023-08-11T04:20:13.868Z,4.33
2023-08-11T04:25:17.340Z,5.23
2023-08-11T04:30:21.801Z,3.60
2023-08-11T04:35:25.250Z,3.83
2023-08-11T04:40:28.382Z,4.33
2023-08-11T04:45:32.858Z,5.00
2023-08-11T04:50:36.565Z,4.70
2023-08-11T04:55:41.501Z,4.80
2023-08-11T05:00:46.378Z,6.47
2023-08-11T05:05:49.851Z,6.33
2023-08-11T05:10:53.465Z,5.83
2023-08-11T05:15:57.975Z,5.10
2023-08-11T05:21:01.137Z,4.20
2023-08-11T05:26:04.258Z,3.70
2023-08-11T05:31:10.089Z,4.73
2023-08-11T05:36:13.225Z,4.20
2023-08-11T05:41:16.342Z,5.30
2023-08-11T05:46:20.876Z,6.30
2023-08-11T05:51:24.035Z,3.90
2023-08-11T05:56:27.254Z,3.93
2023-08-11T06:01:32.017Z,7.77
2023-08-11T06:06:36.041Z,4.50
2023-08-11T06:11:39.136Z,4.90
2023-08-11T06:16:43.706Z,7.00
2023-08-11T06:21:47.514Z,5.43
2023-08-11T06:26:53.735Z,6.27
2023-08-11T06:31:58.581Z,5.73
2023-08-11T06:37:01.689Z,5.57
2023-08-11T06:42:05.082Z,5.43
2023-08-11T06:47:09.877Z,5.60
2023-08-11T06:52:13.908Z,4.97
2023-08-11T06:57:22.060Z,8.67
2023-08-11T07:02:26.767Z,7.53
2023-08-11T07:07:30.031Z,7.60
2023-08-11T07:12:33.140Z,4.33
2023-08-11T07:17:37.676Z,5.37
2023-08-11T07:22:41.151Z,6.05
2023-08-11T07:27:44.277Z,7.72
2023-08-11T07:32:48.818Z,4.45
2023-08-11T07:37:52.391Z,4.47
2023-08-11T07:42:55.554Z,3.22
2023-08-11T07:48:00.047Z,3.60
2023-08-11T07:53:03.697Z,4.22
2023-08-11T07:58:06.836Z,5.38
2023-08-11T08:03:11.385Z,4.25
2023-08-11T08:08:14.556Z,3.95
2023-08-11T08:13:18.835Z,3.75
2023-08-11T08:18:23.294Z,5.00
2023-08-11T08:23:26.474Z,4.85
2023-08-11T08:28:31.381Z,5.07
2023-08-11T08:33:37.118Z,5.07
2023-08-11T08:38:40.266Z,3.80
2023-08-11T08:43:43.612Z,3.40
2023-08-11T08:48:54.162Z,4.22
2023-08-11T08:53:57.279Z,4.10
2023-08-11T08:59:00.370Z,3.25
2023-08-11T09:04:07.434Z,4.80
2023-08-11T09:09:13.778Z,5.63
2023-08-11T09:14:17.500Z,4.00
2023-08-11T09:19:22.449Z,3.63
2023-08-11T09:24:25.653Z,6.55
2023-08-11T09:29:29.357Z,4.15
2023-08-11T09:34:35.028Z,3.35
2023-08-11T09:39:38.357Z,4.20
2023-08-11T09:44:41.586Z,3.50
2023-08-11T09:49:46.140Z,4.70
2023-08-11T09:54:51.910Z,3.40
2023-08-11T09:59:56.901Z,4.22
2023-08-11T10:05:05.960Z,3.50
2023-08-11T10:10:14.961Z,4.78
2023-08-11T10:15:21.580Z,6.15
2023-08-11T10:20:26.739Z,4.95
2023-08-11T10:25:31.440Z,3.13
2023-08-11T10:30:34.709Z,3.55
2023-08-11T10:35:52.262Z,3.03
2023-08-11T10:41:01.960Z,2.78
2023-08-11T10:46:23.965Z,3.85
2023-08-11T10:51:33.722Z,3.50
2023-08-11T10:56:39.311Z,4.65
2023-08-11T11:01:43.509Z,3.20
2023-08-11T11:06:49.410Z,3.47
2023-08-11T11:11:53.110Z,3.58
2023-08-11T11:16:59.776Z,4.25
2023-08-11T11:22:04.813Z,4.63
2023-08-11T11:27:08.558Z,5.35
2023-08-11T11:32:12.923Z,3.83
2023-08-11T11:37:17.667Z,4.25
2023-08-11T11:42:20.853Z,2.85
2023-08-11T11:47:24.289Z,4.05
2023-08-11T11:52:29.098Z,4.43
2023-08-11T11:57:32.245Z,4.07
2023-08-11T12:02:35.710Z,2.80
2023-08-11T12:07:40.453Z,3.38
2023-08-11T12:12:43.629Z,4.38
2023-08-11T12:17:50.305Z,4.40
2023-08-11T12:22:54.755Z,3.30
2023-08-11T12:27:58.148Z,2.90
2023-08-11T12:33:01.524Z,3.35
2023-08-11T12:38:06.925Z,3.97
2023-08-11T12:43:13.488Z,4.90
2023-08-11T12:48:17.259Z,4.68
2023-08-11T12:53:21.711Z,3.65
2023-08-11T12:58:24.845Z,2.70
2023-08-11T13:03:29.164Z,2.45
2023-08-11T13:08:33.752Z,3.10
2023-08-11T13:13:36.875Z,2.75
2023-08-11T13:18:40.099Z,2.70
2023-08-11T13:23:44.599Z,2.45
2023-08-11T13:28:47.897Z,2.50
2023-08-11T13:33:51.354Z,2.25
2023-08-11T13:38:55.791Z,2.10
2023-08-11T13:43:59.002Z,3.20
2023-08-11T13:49:02.147Z,2.38
2023-08-11T13:54:07.434Z,3.25
2023-08-11T13:59:10.542Z,2.53
2023-08-11T14:04:14.411Z,3.72
2023-08-11T14:09:18.864Z,2.40
2023-08-11T14:14:21.950Z,2.30
2023-08-11T14:19:25.167Z,6.05
2023-08-11T14:24:29.640Z,2.30
2023-08-11T14:29:32.691Z,2.03
2023-08-11T14:34:35.789Z,4.93
2023-08-11T14:39:40.216Z,3.08
2023-08-11T14:44:43.624Z,2.40
2023-08-11T14:49:46.737Z,2.97
2023-08-11T14:54:51.191Z,3.15
2023-08-11T14:59:54.320Z,2.45
2023-08-11T15:04:57.819Z,2.38
2023-08-11T15:10:02.286Z,3.45
2023-08-11T15:15:06.547Z,3.33
2023-08-11T15:20:11.097Z,2.30
2023-08-11T15:25:15.574Z,4.20
2023-08-11T15:30:20.543Z,2.55
2023-08-11T15:35:24.199Z,2.13
2023-08-11T15:40:28.706Z,3.92
2023-08-11T15:45:31.830Z,3.80
2023-08-11T15:50:34.966Z,3.53
2023-08-11T15:55:39.396Z,2.90
2023-08-11T16:00:43.542Z,3.88
2023-08-11T16:05:46.965Z,2.17
2023-08-11T16:10:51.653Z,6.13
2023-08-11T16:15:54.788Z,2.42
2023-08-11T16:20:58.885Z,2.53
2023-08-11T16:26:04.013Z,1.85
2023-08-11T16:31:07.188Z,1.88
2023-08-11T16:36:10.426Z,3.00
2023-08-11T16:41:15.406Z,3.15
2023-08-11T16:46:19.512Z,1.88
2023-08-11T16:51:22.694Z,2.00
2023-08-11T16:56:27.259Z,2.13
2023-08-11T17:01:30.443Z,3.15
2023-08-11T17:06:33.588Z,2.95
2023-08-11T17:11:38.170Z,2.40
2023-08-11T17:16:41.705Z,2.95
2023-08-11T17:21:45.148Z,2.60
2023-08-11T17:26:49.877Z,2.92
2023-08-11T17:31:53.077Z,2.78
2023-08-11T17:36:56.286Z,5.25
2023-08-11T17:42:05.779Z,7.25
2023-08-11T17:47:10.551Z,4.85
2023-08-11T17:52:13.830Z,4.10
2023-08-11T17:57:18.385Z,2.88
2023-08-11T18:02:21.540Z,3.80
2023-08-11T18:07:25.178Z,16.38
2023-08-11T18:12:29.743Z,68.10
2023-08-11T18:17:32.882Z,23.90
2023-08-11T18:22:36.065Z,6.97
2023-08-11T18:27:41.355Z,7.28
2023-08-11T18:32:46.167Z,4.82
2023-08-11T18:37:49.611Z,7.47
2023-08-11T18:42:54.108Z,17.13
2023-08-11T18:47:57.749Z,40.03
2023-08-11T18:53:01.351Z,59.20
2023-08-11T18:58:05.970Z,37.40
2023-08-11T19:03:09.280Z,25.80
2023-08-11T19:08:13.176Z,12.48
2023-08-11T19:13:17.629Z,7.18
2023-08-11T19:18:20.785Z,5.97
2023-08-11T19:23:24.116Z,6.13
2023-08-11T19:28:32.443Z,4.80
2023-08-11T19:33:36.267Z,9.77
2023-08-11T19:38:43.069Z,9.33
2023-08-11T19:43:47.501Z,7.07
2023-08-11T19:48:50.605Z,6.87
2023-08-11T19:53:53.703Z,5.95
2023-08-11T19:58:58.160Z,4.95
2023-08-11T20:04:01.256Z,5.03
2023-08-11T20:09:08.969Z,5.07
2023-08-11T20:14:13.461Z,5.70
2023-08-11T20:19:16.636Z,6.90
2023-08-11T20:24:19.753Z,4.53
2023-08-11T20:29:24.396Z,4.30
2023-08-11T20:34:27.830Z,5.10
2023-08-11T20:39:31.439Z,4.13
2023-08-11T20:44:36.036Z,6.97
2023-08-11T20:49:39.125Z,4.80
2023-08-11T20:54:44.182Z,4.50
2023-08-11T20:59:48.634Z,5.37
2023-08-11T21:04:51.744Z,5.40
2023-08-11T21:09:54.819Z,6.40
2023-08-11T21:14:59.294Z,4.80
2023-08-11T21:20:02.694Z,5.00
2023-08-11T21:25:06.481Z,6.30
2023-08-11T21:30:12.083Z,4.77
2023-08-11T21:35:15.189Z,5.10
2023-08-11T21:40:18.484Z,4.83
2023-08-11T21:45:22.949Z,8.27
2023-08-11T21:50:27.321Z,4.90
2023-08-11T21:55:30.413Z,5.77
2023-08-11T22:00:36.862Z,4.90
2023-08-11T22:05:40.125Z,6.07
2023-08-11T22:10:45.782Z,5.20
2023-08-11T22:15:50.959Z,7.83
2023-08-11T22:20:54.113Z,7.67
2023-08-11T22:25:57.252Z,6.10
2023-08-11T22:31:01.718Z,8.40
2023-08-11T22:36:05.103Z,5.50
2023-08-11T22:41:08.199Z,9.57
2023-08-11T22:46:12.692Z,6.47
2023-08-11T22:51:15.824Z,6.17
2023-08-11T22:56:18.901Z,5.50
2023-08-11T23:01:23.474Z,14.87
2023-08-11T23:06:26.835Z,12.50
2023-08-11T23:11:30.005Z,7.50
2023-08-11T23:16:34.460Z,6.80
2023-08-11T23:21:37.609Z,6.23
2023-08-11T23:26:40.783Z,6.67
2023-08-11T23:31:45.463Z,6.60
2023-08-11T23:36:48.647Z,6.83
2023-08-11T23:41:52.042Z,6.97
2023-08-11T23:46:56.466Z,6.37
2023-08-11T23:51:59.568Z,6.63
2023-08-11T23:57:02.924Z,7.13
